createdAt,value
2018-03-18T07:05:46.754Z,96144.75
2018-03-18T07:08:17.759Z,96146.24
2018-03-18T07:10:48.769Z,96151.39
2018-03-18T07:13:19.769Z,96162.39
2018-03-18T07:15:50.809Z,96156.52
2018-03-18T07:18:21.795Z,96158.91
2018-03-18T07:20:52.776Z,96163.27
2018-03-18T07:23:23.795Z,96167.00
2018-03-18T07:25:54.761Z,96169.03
2018-03-18T07:28:25.723Z,96177.08
2018-03-18T07:30:56.685Z,96178.06
2018-03-18T07:33:27.652Z,96184.76
2018-03-18T07:35:58.709Z,96185.89
2018-03-18T07:38:29.689Z,96192.71
2018-03-18T07:41:00.692Z,96191.78
2018-03-18T07:43:31.684Z,96199.56
2018-03-18T07:46:02.681Z,96201.73
2018-03-18T07:48:33.643Z,96205.47
2018-03-18T07:51:04.672Z,96201.89
2018-03-18T07:53:35.649Z,96209.51
2018-03-18T07:56:06.631Z,96212.13
2018-03-18T07:58:37.678Z,96217.06
2018-03-18T08:01:08.708Z,96222.24
2018-03-18T08:03:39.697Z,96221.83
2018-03-18T08:06:10.701Z,96232.45
2018-03-18T08:08:41.672Z,96227.75
2018-03-18T08:11:12.668Z,96237.55
2018-03-18T08:13:43.671Z,96242.10
2018-03-18T08:16:14.657Z,96238.91
2018-03-18T08:18:45.681Z,96241.66
2018-03-18T08:21:16.670Z,96248.71
2018-03-18T08:23:47.661Z,96253.28
2018-03-18T08:26:18.702Z,96257.77
2018-03-18T08:28:49.682Z,96251.97
2018-03-18T08:31:20.687Z,96261.73
2018-03-18T08:33:51.671Z,96257.93
2018-03-18T08:36:22.654Z,96264.73
2018-03-18T08:38:53.660Z,96262.09
2018-03-18T08:41:24.640Z,96257.56
2018-03-18T08:43:55.640Z,96264.55
2018-03-18T08:46:26.647Z,96263.30
2018-03-18T08:48:57.653Z,96281.10
2018-03-18T08:51:28.654Z,96279.67
2018-03-18T08:53:59.661Z,96277.02
2018-03-18T08:56:30.674Z,96271.95
2018-03-18T08:59:01.683Z,96276.63
2018-03-18T09:01:32.691Z,96278.25
2018-03-18T09:04:03.741Z,96275.39
2018-03-18T09:06:34.743Z,96278.96
2018-03-18T09:09:05.748Z,96288.65
2018-03-18T09:11:36.765Z,96280.97
2018-03-18T09:14:07.733Z,96275.03
2018-03-18T09:16:38.728Z,96282.41
2018-03-18T09:19:09.704Z,96280.11
2018-03-18T09:21:40.674Z,96276.11
2018-03-18T09:24:11.712Z,96276.59
2018-03-18T09:26:42.728Z,96278.52
2018-03-18T09:29:13.680Z,96283.34
2018-03-18T09:31:44.660Z,96279.38
2018-03-18T09:34:15.666Z,96284.66
2018-03-18T09:36:46.657Z,96280.64
2018-03-18T09:39:17.629Z,96280.68
2018-03-18T09:41:48.633Z,96289.84
2018-03-18T09:44:19.597Z,96286.47
2018-03-18T09:46:50.594Z,96291.45
2018-03-18T09:49:21.592Z,96286.05
2018-03-18T09:51:52.601Z,96284.71
2018-03-18T09:54:30.484Z,96288.16
2018-03-18T09:57:01.494Z,96286.59
2018-03-18T09:59:32.462Z,96287.25
2018-03-18T10:02:03.436Z,96288.20
2018-03-18T10:04:34.450Z,96285.51
2018-03-18T10:07:05.419Z,96280.03
2018-03-18T10:09:36.391Z,96288.38
2018-03-18T10:12:07.421Z,96285.59
2018-03-18T10:14:38.429Z,96287.97
2018-03-18T10:17:09.447Z,96294.25
2018-03-18T10:19:40.421Z,96291.02
2018-03-18T10:22:11.445Z,96297.08
2018-03-18T10:24:42.419Z,96305.51
2018-03-18T10:27:13.471Z,96298.20
2018-03-18T10:29:44.457Z,96299.06
2018-03-18T10:32:15.510Z,96304.34
2018-03-18T10:34:46.520Z,96301.29
2018-03-18T10:37:17.573Z,96311.25
2018-03-18T10:39:48.545Z,96306.00
2018-03-18T10:42:19.529Z,96317.53
2018-03-18T10:44:50.546Z,96313.01
2018-03-18T10:47:21.548Z,96313.11
2018-03-18T10:49:52.555Z,96321.82
2018-03-18T10:52:23.540Z,96321.94
2018-03-18T10:54:54.562Z,96322.33
2018-03-18T10:57:25.547Z,96331.38
2018-03-18T10:59:56.629Z,96330.34
2018-03-18T11:02:27.642Z,96345.34
2018-03-18T11:04:58.673Z,96332.30
2018-03-18T11:07:29.643Z,96334.41
2018-03-18T11:10:00.643Z,96337.89
2018-03-18T11:12:31.631Z,96334.54
2018-03-18T11:15:02.693Z,96332.58
2018-03-18T11:17:33.716Z,96335.83
2018-03-18T11:20:05.184Z,96335.77
2018-03-18T11:22:36.238Z,96340.05
2018-03-18T11:25:07.238Z,96343.86
2018-03-18T11:27:38.232Z,96345.99
2018-03-18T11:30:09.305Z,96340.72
2018-03-18T11:32:40.354Z,96338.52
2018-03-18T11:35:11.361Z,96334.58
2018-03-18T11:37:42.373Z,96339.53
2018-03-18T11:40:13.401Z,96341.48
2018-03-18T11:42:44.391Z,96338.61
2018-03-18T11:45:15.354Z,96335.09
2018-03-18T11:47:46.349Z,96327.28
2018-03-18T11:50:17.367Z,96334.64
2018-03-18T11:52:48.415Z,96315.18
2018-03-18T11:55:19.420Z,96322.70
2018-03-18T11:57:50.429Z,96322.09
2018-03-18T12:00:21.431Z,96312.12
2018-03-18T12:02:52.480Z,96311.93
2018-03-18T12:05:23.493Z,96316.34
2018-03-18T12:07:54.491Z,96316.97
2018-03-18T12:10:25.474Z,96313.81
2018-03-18T12:12:56.491Z,96313.97
2018-03-18T12:15:27.485Z,96308.16
2018-03-18T12:17:59.465Z,96302.53
2018-03-18T12:20:30.474Z,96306.98
2018-03-18T12:23:01.469Z,96302.67
2018-03-18T12:25:32.497Z,96305.02
2018-03-18T12:28:03.493Z,96308.34
2018-03-18T12:30:34.530Z,96304.42
2018-03-18T12:33:05.557Z,96297.48
2018-03-18T12:35:36.586Z,96303.44
2018-03-18T12:38:07.563Z,96300.50
2018-03-18T12:40:38.595Z,96308.11
2018-03-18T12:43:21.930Z,96300.72
2018-03-18T12:45:52.930Z,96302.39
2018-03-18T12:48:23.979Z,96304.34
2018-03-18T12:50:55.017Z,96310.13
2018-03-18T12:53:26.032Z,96312.30
2018-03-18T12:55:57.003Z,96299.12
2018-03-18T12:58:28.071Z,96302.98
2018-03-18T13:00:59.064Z,96301.91
2018-03-18T13:03:30.023Z,96299.23
2018-03-18T13:06:01.044Z,96301.60
2018-03-18T13:08:32.052Z,96300.23
2018-03-18T13:11:03.036Z,96299.02
2018-03-18T13:13:33.976Z,96288.94
2018-03-18T13:16:05.025Z,96292.27
2018-03-18T13:18:36.020Z,96308.17
2018-03-18T13:21:06.997Z,96299.75
2018-03-18T13:23:38.016Z,96305.06
2018-03-18T13:26:08.999Z,96299.05
2018-03-18T13:28:40.030Z,96310.39
2018-03-18T13:31:11.014Z,96311.09
2018-03-18T13:33:42.014Z,96309.50
2018-03-18T13:36:13.012Z,96311.27
2018-03-18T13:38:43.975Z,96314.05
2018-03-18T13:41:14.960Z,96308.96
2018-03-18T13:43:45.970Z,96314.44
2018-03-18T13:46:16.982Z,96325.81
2018-03-18T13:48:47.965Z,96326.48
2018-03-18T13:51:18.945Z,96333.80
2018-03-18T13:53:49.922Z,96342.84
2018-03-18T13:56:20.959Z,96342.14
2018-03-18T13:58:51.983Z,96341.91
2018-03-18T14:01:22.944Z,96350.65
2018-03-18T14:03:53.900Z,96357.29
2018-03-18T14:06:24.888Z,96354.06
2018-03-18T14:08:55.894Z,96350.63
2018-03-18T14:11:26.892Z,96353.29
2018-03-18T14:13:57.885Z,96351.52
2018-03-18T14:16:28.845Z,96351.95
2018-03-18T14:18:59.840Z,96354.25
2018-03-18T14:21:30.852Z,96359.62
2018-03-18T14:24:01.890Z,96366.51
2018-03-18T14:26:32.876Z,96364.23
2018-03-18T14:29:03.942Z,96368.88
2018-03-18T14:31:35.044Z,96382.42
2018-03-18T14:34:05.977Z,96385.21
2018-03-18T14:36:36.994Z,96388.49
2018-03-18T14:39:08.035Z,96388.11
2018-03-18T14:41:39.083Z,96392.88
2018-03-18T14:44:10.076Z,96396.98
2018-03-18T14:46:41.103Z,96401.67
2018-03-18T14:49:12.114Z,96402.70
2018-03-18T14:51:43.152Z,96411.72
2018-03-18T14:54:14.140Z,96410.81
2018-03-18T14:56:45.126Z,96413.23
2018-03-18T14:59:16.151Z,96411.83
2018-03-18T15:01:47.164Z,96411.15
2018-03-18T15:04:18.228Z,96415.30
2018-03-18T15:06:49.218Z,96409.61
2018-03-18T15:09:20.220Z,96419.03
2018-03-18T15:11:58.318Z,96415.52
2018-03-18T15:14:29.278Z,96417.75
2018-03-18T15:17:00.310Z,96416.09
2018-03-18T15:19:31.277Z,96431.06
2018-03-18T15:22:02.325Z,96428.70
2018-03-18T15:24:33.305Z,96433.34
2018-03-18T15:27:04.265Z,96431.22
2018-03-18T15:29:35.252Z,96439.81
2018-03-18T15:32:06.305Z,96431.88
2018-03-18T15:34:37.344Z,96434.92
2018-03-18T15:37:08.378Z,96440.10
2018-03-18T15:39:39.358Z,96438.41
2018-03-18T15:42:10.418Z,96439.47
2018-03-18T15:44:41.373Z,96436.31
2018-03-18T15:47:12.359Z,96437.17
2018-03-18T15:49:43.362Z,96437.67
2018-03-18T15:52:14.321Z,96440.47
2018-03-18T15:54:45.326Z,96447.73
2018-03-18T15:57:16.337Z,96434.78
2018-03-18T15:59:47.347Z,96442.24
2018-03-18T16:02:18.276Z,96442.06
2018-03-18T16:04:49.288Z,96448.02
2018-03-18T16:07:20.306Z,96446.02
2018-03-18T16:09:51.300Z,96453.53
2018-03-18T16:12:22.293Z,96457.12
2018-03-18T16:14:53.292Z,96461.55
2018-03-18T16:17:24.258Z,96462.45
2018-03-18T16:19:55.275Z,96463.83
2018-03-18T16:22:26.284Z,96466.52
2018-03-18T16:24:57.265Z,96466.93
2018-03-18T16:27:28.324Z,96470.48
2018-03-18T16:30:11.597Z,96472.58
2018-03-18T16:32:42.633Z,96479.00
2018-03-18T16:35:13.636Z,96477.82
2018-03-18T16:37:44.642Z,96480.21
2018-03-18T16:40:15.729Z,96488.34
2018-03-18T16:42:46.733Z,96480.37
2018-03-18T16:45:17.751Z,96485.36
2018-03-18T16:47:48.753Z,96489.41
2018-03-18T16:50:19.767Z,96497.84
2018-03-18T16:52:50.764Z,96497.14
2018-03-18T16:55:21.748Z,96498.67
2018-03-18T16:57:52.737Z,96505.25
2018-03-18T17:00:23.737Z,96504.23
2018-03-18T17:02:54.783Z,96509.98
2018-03-18T17:05:25.719Z,96522.25
2018-03-18T17:07:56.737Z,96520.08
2018-03-18T17:10:27.786Z,96524.17
2018-03-18T17:12:58.783Z,96531.44
2018-03-18T17:15:29.842Z,96532.83
2018-03-18T17:18:00.884Z,96539.94
2018-03-18T17:20:31.845Z,96542.55
2018-03-18T17:23:02.908Z,96549.53
2018-03-18T17:25:33.863Z,96559.78
2018-03-18T17:28:04.829Z,96554.17
2018-03-18T17:30:35.809Z,96560.77
2018-03-18T17:33:06.800Z,96569.44
2018-03-18T17:35:37.792Z,96568.27
2018-03-18T17:38:08.776Z,96575.72
2018-03-18T17:40:39.977Z,96573.70
2018-03-18T17:43:11.035Z,96578.50
2018-03-18T17:45:54.245Z,96585.56
2018-03-18T17:48:37.595Z,96584.05
2018-03-18T17:51:20.676Z,96588.04
2018-03-18T17:54:03.931Z,96584.47
2018-03-18T17:56:35.883Z,96590.02
2018-03-18T17:59:06.933Z,96589.42
2018-03-18T18:01:38.075Z,96596.90
2018-03-18T18:04:09.042Z,96595.89
2018-03-18T18:06:40.028Z,96595.11
2018-03-18T18:09:11.056Z,96596.30
2018-03-18T18:11:42.034Z,96596.70
2018-03-18T18:14:13.092Z,96596.38
2018-03-18T18:16:44.076Z,96601.08
2018-03-18T18:19:15.080Z,96609.83
2018-03-18T18:21:46.088Z,96611.61
2018-03-18T18:24:17.100Z,96609.02
2018-03-18T18:26:48.055Z,96605.85
2018-03-18T18:29:19.040Z,96610.60
2018-03-18T18:31:50.024Z,96612.11
2018-03-18T18:34:21.030Z,96617.17
2018-03-18T18:36:52.065Z,96615.68
2018-03-18T18:39:23.080Z,96620.94
2018-03-18T18:41:54.149Z,96617.77
2018-03-18T18:44:25.146Z,96622.16
2018-03-18T18:46:56.155Z,96624.83
2018-03-18T18:49:27.148Z,96622.86
2018-03-18T18:51:58.147Z,96630.70
2018-03-18T18:54:29.236Z,96628.92
2018-03-18T18:57:00.199Z,96630.32
2018-03-18T18:59:31.209Z,96628.81
2018-03-18T19:02:02.168Z,96625.84
2018-03-18T19:04:33.172Z,96630.52
2018-03-18T19:07:04.179Z,96628.71
2018-03-18T19:09:35.103Z,96628.62
2018-03-18T19:12:06.083Z,96632.99
2018-03-18T19:14:37.090Z,96626.22
2018-03-18T19:17:08.067Z,96631.91
2018-03-18T19:19:39.063Z,96635.48
2018-03-18T19:22:10.115Z,96634.60
2018-03-18T19:24:41.068Z,96638.36
2018-03-18T19:27:12.034Z,96640.65
2018-03-18T19:29:42.999Z,96633.58
2018-03-18T19:32:14.041Z,96635.99
2018-03-18T19:34:45.002Z,96640.14
2018-03-18T19:37:16.005Z,96639.77
2018-03-18T19:39:47.659Z,96642.95
2018-03-18T19:42:18.688Z,96644.83
2018-03-18T19:44:49.695Z,96643.53
2018-03-18T19:47:20.823Z,96644.02
2018-03-18T19:49:51.758Z,96652.79
2018-03-18T19:52:22.738Z,96644.74
2018-03-18T19:54:53.771Z,96642.05
2018-03-18T19:57:24.757Z,96651.02
2018-03-18T19:59:55.733Z,96644.42
2018-03-18T20:02:26.732Z,96657.25
2018-03-18T20:04:57.713Z,96646.80
2018-03-18T20:07:28.749Z,96654.07
2018-03-18T20:09:59.761Z,96655.96
2018-03-18T20:12:30.779Z,96662.03
2018-03-18T20:15:01.770Z,96661.75
2018-03-18T20:17:32.835Z,96662.14
2018-03-18T20:20:03.855Z,96667.52
2018-03-18T20:22:34.836Z,96669.80
2018-03-18T20:25:05.877Z,96669.67
2018-03-18T20:27:36.881Z,96673.38
2018-03-18T20:30:07.914Z,96666.89
2018-03-18T20:32:39.233Z,96674.42
2018-03-18T20:35:10.255Z,96670.11
2018-03-18T20:37:41.275Z,96674.01
2018-03-18T20:40:12.288Z,96675.37
2018-03-18T20:42:43.284Z,96673.58
2018-03-18T20:45:14.237Z,96676.05
2018-03-18T20:47:45.235Z,96674.77
2018-03-18T20:50:16.215Z,96672.79
2018-03-18T20:52:47.269Z,96673.27
2018-03-18T20:55:18.312Z,96666.88
2018-03-18T20:57:49.355Z,96675.98
2018-03-18T21:00:20.369Z,96680.08
2018-03-18T21:02:51.337Z,96679.68
2018-03-18T21:05:22.690Z,96681.95
2018-03-18T21:07:53.700Z,96690.23
2018-03-18T21:10:24.708Z,96690.34
2018-03-18T21:12:55.701Z,96688.25
2018-03-18T21:15:26.757Z,96694.28
2018-03-18T21:17:57.692Z,96686.96
2018-03-18T21:20:28.708Z,96690.27
2018-03-18T21:22:59.669Z,96692.86
2018-03-18T21:25:30.655Z,96692.29
2018-03-18T21:28:01.680Z,96684.19
2018-03-18T21:30:32.624Z,96690.55
2018-03-18T21:33:03.647Z,96695.17
2018-03-18T21:35:34.631Z,96704.80
2018-03-18T21:38:05.673Z,96697.89
2018-03-18T21:40:36.663Z,96707.94
2018-03-18T21:43:07.669Z,96702.53
2018-03-18T21:45:38.695Z,96699.42
2018-03-18T21:48:09.663Z,96700.71
2018-03-18T21:50:40.690Z,96700.37
2018-03-18T21:53:11.706Z,96705.70
2018-03-18T21:55:42.745Z,96706.80
2018-03-18T21:58:13.774Z,96704.98
2018-03-18T22:00:44.735Z,96705.67
2018-03-18T22:03:15.709Z,96711.30
2018-03-18T22:05:46.677Z,96704.16
2018-03-18T22:08:17.711Z,96711.14
2018-03-18T22:10:48.657Z,96709.02
2018-03-18T22:13:19.674Z,96706.19
2018-03-18T22:15:50.644Z,96705.39
2018-03-18T22:18:21.643Z,96702.87
2018-03-18T22:20:52.599Z,96706.34
2018-03-18T22:23:23.592Z,96699.15
2018-03-18T22:25:54.569Z,96706.19
2018-03-18T22:28:25.555Z,96701.30
2018-03-18T22:30:56.585Z,96702.22
2018-03-18T22:33:27.592Z,96697.03
2018-03-18T22:35:58.617Z,96698.13
2018-03-18T22:38:29.631Z,96696.06
2018-03-18T22:41:00.586Z,96705.14
2018-03-18T22:43:31.572Z,96693.98
2018-03-18T22:46:02.590Z,96698.44
2018-03-18T22:48:33.600Z,96699.17
2018-03-18T22:51:04.612Z,96699.95
2018-03-18T22:53:35.625Z,96694.28
2018-03-18T22:56:06.696Z,96694.19
2018-03-18T22:58:37.690Z,96698.66
2018-03-18T23:01:08.742Z,96701.11
2018-03-18T23:03:39.733Z,96702.83
2018-03-18T23:06:10.713Z,96701.77
2018-03-18T23:08:41.734Z,96698.91
2018-03-18T23:11:12.718Z,96703.76
2018-03-18T23:13:43.691Z,96706.89
2018-03-18T23:16:14.682Z,96699.83
2018-03-18T23:18:45.688Z,96698.41
2018-03-18T23:21:16.716Z,96699.33
2018-03-18T23:23:47.699Z,96691.86
2018-03-18T23:26:18.693Z,96690.50
2018-03-18T23:28:50.604Z,96695.03
2018-03-18T23:31:21.745Z,96694.72
2018-03-18T23:33:55.612Z,96700.44
2018-03-18T23:36:26.834Z,96699.05
2018-03-18T23:38:57.807Z,96699.70
2018-03-18T23:41:28.827Z,96694.53
2018-03-18T23:43:59.802Z,96701.55
2018-03-18T23:46:30.831Z,96696.20
2018-03-18T23:49:01.780Z,96693.48
2018-03-18T23:51:32.758Z,96697.95
2018-03-18T23:54:03.780Z,96701.56
2018-03-18T23:56:34.741Z,96697.03
2018-03-18T23:59:05.739Z,96698.34
